sensor_id;sensor_type;location;lat;lon;timestamp;P1;durP1;ratioP1;P2;durP2;ratioP2
38262;SDS011;24054;50.128;19.730;2023-03-04T00:01:51;20.70;;;15.02;;
38262;SDS011;24054;50.128;19.730;2023-03-04T00:04:18;20.13;;;14.77;;
38262;SDS011;24054;50.128;19.730;2023-03-04T00:06:45;21.08;;;14.77;;
38262;SDS011;24054;50.128;19.730;2023-03-04T00:09:12;21.58;;;15.02;;
38262;SDS011;24054;50.128;19.730;2023-03-04T00:11:39;23.85;;;15.23;;
38262;SDS011;24054;50.128;19.730;2023-03-04T00:14:08;20.63;;;14.23;;
38262;SDS011;24054;50.128;19.730;2023-03-04T00:16:35;21.10;;;14.50;;
38262;SDS011;24054;50.128;19.730;2023-03-04T00:19:02;19.13;;;13.43;;
38262;SDS011;24054;50.128;19.730;2023-03-04T00:21:30;20.42;;;15.23;;
38262;SDS011;24054;50.128;19.730;2023-03-04T00:23:57;22.77;;;15.07;;
38262;SDS011;24054;50.128;19.730;2023-03-04T00:26:24;20.75;;;14.98;;
38262;SDS011;24054;50.128;19.730;2023-03-04T00:28:51;21.48;;;14.63;;
38262;SDS011;24054;50.128;19.730;2023-03-04T00:31:20;18.88;;;13.75;;
38262;SDS011;24054;50.128;19.730;2023-03-04T00:33:47;23.23;;;15.40;;
38262;SDS011;24054;50.128;19.730;2023-03-04T00:36:14;21.10;;;14.80;;
38262;SDS011;24054;50.128;19.730;2023-03-04T00:38:41;21.17;;;14.70;;
38262;SDS011;24054;50.128;19.730;2023-03-04T00:41:08;20.73;;;14.57;;
38262;SDS011;24054;50.128;19.730;2023-03-04T00:43:35;20.95;;;14.50;;
38262;SDS011;24054;50.128;19.730;2023-03-04T00:46:02;23.17;;;14.40;;
38262;SDS011;24054;50.128;19.730;2023-03-04T00:48:32;21.58;;;14.45;;
38262;SDS011;24054;50.128;19.730;2023-03-04T00:50:59;21.05;;;15.45;;
38262;SDS011;24054;50.128;19.730;2023-03-04T00:53:26;20.38;;;15.02;;
38262;SDS011;24054;50.128;19.730;2023-03-04T00:55:53;22.67;;;15.13;;
38262;SDS011;24054;50.128;19.730;2023-03-04T00:58:20;19.48;;;13.23;;
38262;SDS011;24054;50.128;19.730;2023-03-04T01:00:50;20.27;;;14.68;;
38262;SDS011;24054;50.128;19.730;2023-03-04T01:03:17;21.00;;;14.82;;
38262;SDS011;24054;50.128;19.730;2023-03-04T01:05:45;20.75;;;15.35;;
38262;SDS011;24054;50.128;19.730;2023-03-04T01:08:12;19.65;;;14.95;;
38262;SDS011;24054;50.128;19.730;2023-03-04T01:10:39;20.55;;;13.55;;
38262;SDS011;24054;50.128;19.730;2023-03-04T01:13:07;23.35;;;16.27;;
38262;SDS011;24054;50.128;19.730;2023-03-04T01:15:34;20.75;;;14.57;;
38262;SDS011;24054;50.128;19.730;2023-03-04T01:18:01;21.15;;;15.15;;
38262;SDS011;24054;50.128;19.730;2023-03-04T01:20:28;20.40;;;14.73;;
38262;SDS011;24054;50.128;19.730;2023-03-04T01:22:56;19.88;;;13.73;;
38262;SDS011;24054;50.128;19.730;2023-03-04T01:25:23;18.10;;;14.05;;
38262;SDS011;24054;50.128;19.730;2023-03-04T01:27:50;21.58;;;15.07;;
38262;SDS011;24054;50.128;19.730;2023-03-04T01:30:17;20.80;;;14.93;;
38262;SDS011;24054;50.128;19.730;2023-03-04T01:32:44;23.02;;;15.13;;
38262;SDS011;24054;50.128;19.730;2023-03-04T01:35:11;23.10;;;15.25;;
38262;SDS011;24054;50.128;19.730;2023-03-04T01:37:38;22.00;;;14.55;;
38262;SDS011;24054;50.128;19.730;2023-03-04T01:40:07;18.33;;;14.30;;
38262;SDS011;24054;50.128;19.730;2023-03-04T01:42:35;20.58;;;14.45;;
38262;SDS011;24054;50.128;19.730;2023-03-04T01:45:03;21.25;;;13.95;;
38262;SDS011;24054;50.128;19.730;2023-03-04T01:47:32;20.05;;;14.20;;
38262;SDS011;24054;50.128;19.730;2023-03-04T01:50:00;22.08;;;14.70;;
38262;SDS011;24054;50.128;19.730;2023-03-04T01:52:30;19.83;;;14.27;;
38262;SDS011;24054;50.128;19.730;2023-03-04T01:54:57;20.20;;;13.95;;
38262;SDS011;24054;50.128;19.730;2023-03-04T01:57:26;18.63;;;13.98;;
38262;SDS011;24054;50.128;19.730;2023-03-04T02:00:10;19.45;;;13.25;;
38262;SDS011;24054;50.128;19.730;2023-03-04T02:02:45;20.98;;;14.18;;
38262;SDS011;24054;50.128;19.730;2023-03-04T02:05:13;18.10;;;12.75;;
38262;SDS011;24054;50.128;19.730;2023-03-04T02:07:41;21.00;;;14.55;;
38262;SDS011;24054;50.128;19.730;2023-03-04T02:10:08;20.98;;;14.82;;
38262;SDS011;24054;50.128;19.730;2023-03-04T02:12:38;18.27;;;13.68;;
38262;SDS011;24054;50.128;19.730;2023-03-04T02:15:06;19.27;;;14.40;;
38262;SDS011;24054;50.128;19.730;2023-03-04T02:17:34;19.17;;;14.05;;
38262;SDS011;24054;50.128;19.730;2023-03-04T02:20:02;20.58;;;14.15;;
38262;SDS011;24054;50.128;19.730;2023-03-04T02:22:39;20.08;;;14.57;;
38262;SDS011;24054;50.128;19.730;2023-03-04T02:25:14;19.83;;;13.95;;
38262;SDS011;24054;50.128;19.730;2023-03-04T02:27:48;19.92;;;14.25;;
38262;SDS011;24054;50.128;19.730;2023-03-04T02:30:15;20.67;;;14.35;;
38262;SDS011;24054;50.128;19.730;2023-03-04T02:32:45;19.02;;;13.63;;
38262;SDS011;24054;50.128;19.730;2023-03-04T02:35:13;17.20;;;12.82;;
38262;SDS011;24054;50.128;19.730;2023-03-04T02:37:42;19.08;;;13.65;;
38262;SDS011;24054;50.128;19.730;2023-03-04T02:40:11;19.13;;;13.65;;
38262;SDS011;24054;50.128;19.730;2023-03-04T02:42:42;19.83;;;14.00;;
38262;SDS011;24054;50.128;19.730;2023-03-04T02:45:28;18.38;;;13.30;;
38262;SDS011;24054;50.128;19.730;2023-03-04T02:47:59;18.40;;;13.23;;
38262;SDS011;24054;50.128;19.730;2023-03-04T02:50:26;17.52;;;13.40;;
38262;SDS011;24054;50.128;19.730;2023-03-04T02:52:56;20.45;;;13.75;;
38262;SDS011;24054;50.128;19.730;2023-03-04T02:55:23;19.80;;;13.57;;
38262;SDS011;24054;50.128;19.730;2023-03-04T02:57:50;17.77;;;13.05;;
38262;SDS011;24054;50.128;19.730;2023-03-04T03:00:17;18.55;;;13.35;;
38262;SDS011;24054;50.128;19.730;2023-03-04T03:02:46;18.38;;;13.52;;
38262;SDS011;24054;50.128;19.730;2023-03-04T03:05:13;18.50;;;13.65;;
38262;SDS011;24054;50.128;19.730;2023-03-04T03:07:40;18.05;;;13.13;;
38262;SDS011;24054;50.128;19.730;2023-03-04T03:10:08;17.02;;;13.30;;
38262;SDS011;24054;50.128;19.730;2023-03-04T03:12:35;16.67;;;11.88;;
38262;SDS011;24054;50.128;19.730;2023-03-04T03:15:02;18.98;;;12.40;;
38262;SDS011;24054;50.128;19.730;2023-03-04T03:17:30;17.38;;;12.73;;
38262;SDS011;24054;50.128;19.730;2023-03-04T03:19:58;16.92;;;12.43;;
38262;SDS011;24054;50.128;19.730;2023-03-04T03:22:25;19.17;;;13.38;;
38262;SDS011;24054;50.128;19.730;2023-03-04T03:24:52;18.73;;;13.45;;
38262;SDS011;24054;50.128;19.730;2023-03-04T03:27:19;18.35;;;13.40;;
38262;SDS011;24054;50.128;19.730;2023-03-04T03:29:46;16.65;;;12.43;;
38262;SDS011;24054;50.128;19.730;2023-03-04T03:32:13;16.40;;;12.63;;
38262;SDS011;24054;50.128;19.730;2023-03-04T03:34:40;18.23;;;13.20;;
38262;SDS011;24054;50.128;19.730;2023-03-04T03:37:09;17.95;;;12.73;;
38262;SDS011;24054;50.128;19.730;2023-03-04T03:39:36;18.73;;;13.25;;
38262;SDS011;24054;50.128;19.730;2023-03-04T03:42:03;18.90;;;12.50;;
38262;SDS011;24054;50.128;19.730;2023-03-04T03:44:30;18.85;;;12.43;;
38262;SDS011;24054;50.128;19.730;2023-03-04T03:46:57;16.27;;;11.63;;
38262;SDS011;24054;50.128;19.730;2023-03-04T03:49:24;17.92;;;13.07;;
38262;SDS011;24054;50.128;19.730;2023-03-04T03:51:51;19.13;;;12.75;;
38262;SDS011;24054;50.128;19.730;2023-03-04T03:54:20;17.58;;;13.55;;
38262;SDS011;24054;50.128;19.730;2023-03-04T03:56:47;18.77;;;13.32;;
38262;SDS011;24054;50.128;19.730;2023-03-04T03:59:14;18.55;;;13.70;;
38262;SDS011;24054;50.128;19.730;2023-03-04T04:01:41;17.92;;;13.35;;
38262;SDS011;24054;50.128;19.730;2023-03-04T04:04:08;17.08;;;12.70;;
38262;SDS011;24054;50.128;19.730;2023-03-04T04:06:35;18.77;;;12.52;;
38262;SDS011;24054;50.128;19.730;2023-03-04T04:09:02;17.55;;;12.80;;
38262;SDS011;24054;50.128;19.730;2023-03-04T04:11:31;17.65;;;13.00;;
38262;SDS011;24054;50.128;19.730;2023-03-04T04:13:58;19.65;;;12.38;;
38262;SDS011;24054;50.128;19.730;2023-03-04T04:16:25;18.27;;;13.40;;
38262;SDS011;24054;50.128;19.730;2023-03-04T04:18:52;15.82;;;12.52;;
38262;SDS011;24054;50.128;19.730;2023-03-04T04:21:19;17.58;;;12.30;;
38262;SDS011;24054;50.128;19.730;2023-03-04T04:23:46;17.17;;;12.18;;
38262;SDS011;24054;50.128;19.730;2023-03-04T04:26:13;16.52;;;12.68;;
38262;SDS011;24054;50.128;19.730;2023-03-04T04:28:41;18.48;;;12.82;;
38262;SDS011;24054;50.128;19.730;2023-03-04T04:31:08;16.50;;;12.05;;
38262;SDS011;24054;50.128;19.730;2023-03-04T04:33:35;18.33;;;12.60;;
38262;SDS011;24054;50.128;19.730;2023-03-04T04:36:03;16.40;;;12.32;;
38262;SDS011;24054;50.128;19.730;2023-03-04T04:38:30;17.02;;;12.90;;
38262;SDS011;24054;50.128;19.730;2023-03-04T04:40:57;17.80;;;12.80;;
38262;SDS011;24054;50.128;19.730;2023-03-04T04:43:25;18.98;;;13.57;;
38262;SDS011;24054;50.128;19.730;2023-03-04T04:45:53;17.15;;;12.57;;
38262;SDS011;24054;50.128;19.730;2023-03-04T04:48:20;17.75;;;12.93;;
38262;SDS011;24054;50.128;19.730;2023-03-04T04:50:52;17.38;;;12.48;;
38262;SDS011;24054;50.128;19.730;2023-03-04T04:53:20;17.23;;;12.63;;
38262;SDS011;24054;50.128;19.730;2023-03-04T04:55:47;17.20;;;13.05;;
38262;SDS011;24054;50.128;19.730;2023-03-04T04:58:14;16.55;;;12.93;;
38262;SDS011;24054;50.128;19.730;2023-03-04T05:00:41;18.70;;;13.82;;
38262;SDS011;24054;50.128;19.730;2023-03-04T05:03:09;17.48;;;12.80;;
38262;SDS011;24054;50.128;19.730;2023-03-04T05:05:36;17.13;;;12.95;;
38262;SDS011;24054;50.128;19.730;2023-03-04T05:08:03;18.20;;;13.20;;
38262;SDS011;24054;50.128;19.730;2023-03-04T05:10:30;18.08;;;12.68;;
38262;SDS011;24054;50.128;19.730;2023-03-04T05:12:57;17.08;;;13.23;;
38262;SDS011;24054;50.128;19.730;2023-03-04T05:15:25;17.85;;;12.80;;
38262;SDS011;24054;50.128;19.730;2023-03-04T05:17:51;16.92;;;13.18;;
38262;SDS011;24054;50.128;19.730;2023-03-04T05:20:20;18.52;;;12.88;;
38262;SDS011;24054;50.128;19.730;2023-03-04T05:22:49;16.50;;;11.98;;
38262;SDS011;24054;50.128;19.730;2023-03-04T05:25:16;15.52;;;12.50;;
38262;SDS011;24054;50.128;19.730;2023-03-04T05:27:43;16.40;;;12.52;;
38262;SDS011;24054;50.128;19.730;2023-03-04T05:30:11;17.35;;;13.13;;
38262;SDS011;24054;50.128;19.730;2023-03-04T05:32:38;16.85;;;12.55;;
38262;SDS011;24054;50.128;19.730;2023-03-04T05:35:06;16.10;;;12.18;;
38262;SDS011;24054;50.128;19.730;2023-03-04T05:37:35;17.10;;;12.45;;
38262;SDS011;24054;50.128;19.730;2023-03-04T05:40:02;16.20;;;12.55;;
38262;SDS011;24054;50.128;19.730;2023-03-04T05:42:30;17.13;;;12.15;;
38262;SDS011;24054;50.128;19.730;2023-03-04T05:44:57;17.70;;;12.48;;
38262;SDS011;24054;50.128;19.730;2023-03-04T05:47:24;17.75;;;12.75;;
38262;SDS011;24054;50.128;19.730;2023-03-04T05:49:51;18.17;;;12.88;;
38262;SDS011;24054;50.128;19.730;2023-03-04T05:52:18;15.45;;;11.68;;
38262;SDS011;24054;50.128;19.730;2023-03-04T05:54:47;17.83;;;12.63;;
38262;SDS011;24054;50.128;19.730;2023-03-04T05:57:13;16.25;;;11.82;;
38262;SDS011;24054;50.128;19.730;2023-03-04T05:59:40;16.63;;;12.38;;
38262;SDS011;24054;50.128;19.730;2023-03-04T06:02:07;18.35;;;13.13;;
38262;SDS011;24054;50.128;19.730;2023-03-04T06:04:36;18.85;;;12.70;;
38262;SDS011;24054;50.128;19.730;2023-03-04T06:07:03;17.10;;;12.75;;
38262;SDS011;24054;50.128;19.730;2023-03-04T06:09:32;18.30;;;13.48;;
38262;SDS011;24054;50.128;19.730;2023-03-04T06:12:00;16.83;;;12.13;;
38262;SDS011;24054;50.128;19.730;2023-03-04T06:14:27;15.57;;;11.27;;
38262;SDS011;24054;50.128;19.730;2023-03-04T06:16:54;16.45;;;11.48;;
38262;SDS011;24054;50.128;19.730;2023-03-04T06:19:21;15.55;;;11.63;;
38262;SDS011;24054;50.128;19.730;2023-03-04T06:21:48;17.60;;;12.23;;
38262;SDS011;24054;50.128;19.730;2023-03-04T06:24:16;15.93;;;11.80;;
38262;SDS011;24054;50.128;19.730;2023-03-04T06:26:43;17.35;;;12.13;;
38262;SDS011;24054;50.128;19.730;2023-03-04T06:29:11;15.23;;;11.80;;
38262;SDS011;24054;50.128;19.730;2023-03-04T06:31:38;16.45;;;11.82;;
38262;SDS011;24054;50.128;19.730;2023-03-04T06:34:06;15.15;;;10.52;;
38262;SDS011;24054;50.128;19.730;2023-03-04T06:36:33;16.75;;;11.80;;
38262;SDS011;24054;50.128;19.730;2023-03-04T06:39:00;14.60;;;11.00;;
38262;SDS011;24054;50.128;19.730;2023-03-04T06:41:28;16.73;;;11.65;;
38262;SDS011;24054;50.128;19.730;2023-03-04T06:43:55;16.08;;;11.25;;
38262;SDS011;24054;50.128;19.730;2023-03-04T06:46:23;16.92;;;11.88;;
38262;SDS011;24054;50.128;19.730;2023-03-04T06:48:50;16.10;;;11.00;;
38262;SDS011;24054;50.128;19.730;2023-03-04T06:51:18;16.75;;;11.27;;
38262;SDS011;24054;50.128;19.730;2023-03-04T06:53:45;15.45;;;10.95;;
38262;SDS011;24054;50.128;19.730;2023-03-04T06:56:12;15.60;;;11.68;;
38262;SDS011;24054;50.128;19.730;2023-03-04T06:58:40;16.80;;;11.70;;
38262;SDS011;24054;50.128;19.730;2023-03-04T07:01:10;16.08;;;11.85;;
38262;SDS011;24054;50.128;19.730;2023-03-04T07:03:39;17.75;;;11.68;;
38262;SDS011;24054;50.128;19.730;2023-03-04T07:06:08;13.80;;;10.20;;
38262;SDS011;24054;50.128;19.730;2023-03-04T07:08:36;14.57;;;10.13;;
38262;SDS011;24054;50.128;19.730;2023-03-04T07:11:04;16.30;;;9.90;;
38262;SDS011;24054;50.128;19.730;2023-03-04T07:13:32;13.88;;;9.90;;
38262;SDS011;24054;50.128;19.730;2023-03-04T07:16:02;17.02;;;10.55;;
38262;SDS011;24054;50.128;19.730;2023-03-04T07:18:30;13.75;;;10.32;;
38262;SDS011;24054;50.128;19.730;2023-03-04T07:20:58;14.20;;;10.57;;
38262;SDS011;24054;50.128;19.730;2023-03-04T07:25:52;17.85;;;11.00;;
38262;SDS011;24054;50.128;19.730;2023-03-04T07:28:20;16.10;;;10.00;;
38262;SDS011;24054;50.128;19.730;2023-03-04T07:30:47;18.60;;;10.45;;
38262;SDS011;24054;50.128;19.730;2023-03-04T07:33:15;16.33;;;10.18;;
38262;SDS011;24054;50.128;19.730;2023-03-04T07:35:43;15.55;;;9.32;;
38262;SDS011;24054;50.128;19.730;2023-03-04T07:38:11;14.52;;;10.07;;
38262;SDS011;24054;50.128;19.730;2023-03-04T07:43:05;15.80;;;9.40;;
38262;SDS011;24054;50.128;19.730;2023-03-04T07:45:33;14.63;;;9.88;;
38262;SDS011;24054;50.128;19.730;2023-03-04T07:48:00;14.70;;;9.98;;
38262;SDS011;24054;50.128;19.730;2023-03-04T07:50:27;19.17;;;9.80;;
38262;SDS011;24054;50.128;19.730;2023-03-04T07:52:54;23.92;;;12.05;;
38262;SDS011;24054;50.128;19.730;2023-03-04T07:55:23;25.67;;;13.73;;
38262;SDS011;24054;50.128;19.730;2023-03-04T07:57:55;33.22;;;15.27;;
38262;SDS011;24054;50.128;19.730;2023-03-04T08:00:23;31.27;;;16.05;;
38262;SDS011;24054;50.128;19.730;2023-03-04T08:02:50;52.78;;;21.45;;
38262;SDS011;24054;50.128;19.730;2023-03-04T08:05:17;62.78;;;24.77;;
38262;SDS011;24054;50.128;19.730;2023-03-04T08:07:44;73.28;;;26.48;;
38262;SDS011;24054;50.128;19.730;2023-03-04T08:10:11;66.05;;;25.17;;
38262;SDS011;24054;50.128;19.730;2023-03-04T08:12:40;56.63;;;26.13;;
38262;SDS011;24054;50.128;19.730;2023-03-04T08:15:08;64.70;;;27.85;;
38262;SDS011;24054;50.128;19.730;2023-03-04T08:17:37;61.45;;;26.73;;
38262;SDS011;24054;50.128;19.730;2023-03-04T08:20:05;60.63;;;25.92;;
38262;SDS011;24054;50.128;19.730;2023-03-04T08:22:32;68.28;;;27.67;;
38262;SDS011;24054;50.128;19.730;2023-03-04T08:25:00;73.78;;;25.98;;
38262;SDS011;24054;50.128;19.730;2023-03-04T08:27:27;61.53;;;24.52;;
38262;SDS011;24054;50.128;19.730;2023-03-04T08:29:56;74.90;;;27.48;;
38262;SDS011;24054;50.128;19.730;2023-03-04T08:32:23;62.67;;;25.70;;
38262;SDS011;24054;50.128;19.730;2023-03-04T08:34:50;62.05;;;25.17;;
38262;SDS011;24054;50.128;19.730;2023-03-04T08:37:19;56.78;;;25.83;;
38262;SDS011;24054;50.128;19.730;2023-03-04T08:39:46;58.25;;;25.52;;
38262;SDS011;24054;50.128;19.730;2023-03-04T08:42:13;55.17;;;25.25;;
38262;SDS011;24054;50.128;19.730;2023-03-04T08:44:40;62.47;;;24.20;;
38262;SDS011;24054;50.128;19.730;2023-03-04T08:47:08;62.42;;;26.73;;
38262;SDS011;24054;50.128;19.730;2023-03-04T08:49:36;65.50;;;24.83;;
38262;SDS011;24054;50.128;19.730;2023-03-04T08:52:03;57.90;;;23.65;;
38262;SDS011;24054;50.128;19.730;2023-03-04T08:54:33;48.63;;;21.73;;
38262;SDS011;24054;50.128;19.730;2023-03-04T08:57:00;53.58;;;23.38;;
38262;SDS011;24054;50.128;19.730;2023-03-04T08:59:28;53.50;;;24.25;;
38262;SDS011;24054;50.128;19.730;2023-03-04T09:01:55;45.10;;;20.65;;
38262;SDS011;24054;50.128;19.730;2023-03-04T09:04:23;48.65;;;20.45;;
38262;SDS011;24054;50.128;19.730;2023-03-04T09:06:50;47.05;;;20.60;;
38262;SDS011;24054;50.128;19.730;2023-03-04T09:09:18;46.45;;;21.00;;
38262;SDS011;24054;50.128;19.730;2023-03-04T09:11:45;46.28;;;20.67;;
38262;SDS011;24054;50.128;19.730;2023-03-04T09:14:12;45.95;;;20.70;;
38262;SDS011;24054;50.128;19.730;2023-03-04T09:16:39;41.97;;;19.27;;
38262;SDS011;24054;50.128;19.730;2023-03-04T09:19:06;48.08;;;20.75;;
38262;SDS011;24054;50.128;19.730;2023-03-04T09:21:35;41.22;;;19.27;;
38262;SDS011;24054;50.128;19.730;2023-03-04T09:24:02;45.03;;;20.00;;
38262;SDS011;24054;50.128;19.730;2023-03-04T09:26:29;40.78;;;18.70;;
38262;SDS011;24054;50.128;19.730;2023-03-04T09:28:57;38.05;;;18.40;;
38262;SDS011;24054;50.128;19.730;2023-03-04T09:31:25;33.78;;;16.08;;
38262;SDS011;24054;50.128;19.730;2023-03-04T09:33:53;33.05;;;17.42;;
38262;SDS011;24054;50.128;19.730;2023-03-04T09:36:22;35.22;;;16.58;;
38262;SDS011;24054;50.128;19.730;2023-03-04T09:38:50;39.22;;;17.30;;
38262;SDS011;24054;50.128;19.730;2023-03-04T09:41:18;36.30;;;17.40;;
38262;SDS011;24054;50.128;19.730;2023-03-04T09:43:48;28.77;;;15.60;;
38262;SDS011;24054;50.128;19.730;2023-03-04T09:46:18;34.38;;;16.35;;
38262;SDS011;24054;50.128;19.730;2023-03-04T09:48:52;32.20;;;16.52;;
38262;SDS011;24054;50.128;19.730;2023-03-04T09:51:21;36.40;;;17.35;;
38262;SDS011;24054;50.128;19.730;2023-03-04T09:54:00;32.97;;;15.02;;
38262;SDS011;24054;50.128;19.730;2023-03-04T09:56:33;31.38;;;15.68;;
38262;SDS011;24054;50.128;19.730;2023-03-04T09:59:04;32.08;;;15.75;;
38262;SDS011;24054;50.128;19.730;2023-03-04T10:01:39;33.00;;;16.20;;
38262;SDS011;24054;50.128;19.730;2023-03-04T10:04:11;27.23;;;14.20;;
38262;SDS011;24054;50.128;19.730;2023-03-04T10:06:41;28.70;;;15.32;;
38262;SDS011;24054;50.128;19.730;2023-03-04T10:09:20;29.52;;;15.07;;
38262;SDS011;24054;50.128;19.730;2023-03-04T10:11:53;23.23;;;12.77;;
38262;SDS011;24054;50.128;19.730;2023-03-04T10:14:32;28.42;;;14.25;;
38262;SDS011;24054;50.128;19.730;2023-03-04T10:17:05;25.17;;;13.85;;
38262;SDS011;24054;50.128;19.730;2023-03-04T10:19:43;23.38;;;12.25;;
38262;SDS011;24054;50.128;19.730;2023-03-04T10:22:19;25.13;;;13.43;;
38262;SDS011;24054;50.128;19.730;2023-03-04T10:24:50;24.67;;;13.20;;
38262;SDS011;24054;50.128;19.730;2023-03-04T10:27:21;27.15;;;13.18;;
38262;SDS011;24054;50.128;19.730;2023-03-04T10:29:49;26.65;;;13.18;;
38262;SDS011;24054;50.128;19.730;2023-03-04T10:32:17;21.80;;;11.57;;
38262;SDS011;24054;50.128;19.730;2023-03-04T10:34:45;24.23;;;12.77;;
38262;SDS011;24054;50.128;19.730;2023-03-04T10:37:12;24.95;;;11.80;;
38262;SDS011;24054;50.128;19.730;2023-03-04T10:39:39;22.27;;;11.75;;
38262;SDS011;24054;50.128;19.730;2023-03-04T10:42:23;23.20;;;11.93;;
38262;SDS011;24054;50.128;19.730;2023-03-04T10:44:54;20.20;;;11.02;;
38262;SDS011;24054;50.128;19.730;2023-03-04T10:49:50;18.40;;;11.05;;
38262;SDS011;24054;50.128;19.730;2023-03-04T10:52:22;18.10;;;11.38;;
38262;SDS011;24054;50.128;19.730;2023-03-04T10:54:54;18.80;;;10.68;;
38262;SDS011;24054;50.128;19.730;2023-03-04T10:59:57;17.27;;;10.25;;
38262;SDS011;24054;50.128;19.730;2023-03-04T11:02:26;18.38;;;10.70;;
38262;SDS011;24054;50.128;19.730;2023-03-04T11:04:56;19.98;;;10.60;;
38262;SDS011;24054;50.128;19.730;2023-03-04T11:07:34;15.68;;;9.77;;
38262;SDS011;24054;50.128;19.730;2023-03-04T11:10:08;28.60;;;11.18;;
38262;SDS011;24054;50.128;19.730;2023-03-04T11:12:40;18.35;;;10.20;;
38262;SDS011;24054;50.128;19.730;2023-03-04T11:15:17;16.83;;;10.35;;
38262;SDS011;24054;50.128;19.730;2023-03-04T11:17:49;15.90;;;10.25;;
38262;SDS011;24054;50.128;19.730;2023-03-04T11:20:24;16.35;;;9.18;;
38262;SDS011;24054;50.128;19.730;2023-03-04T11:22:54;16.17;;;8.98;;
38262;SDS011;24054;50.128;19.730;2023-03-04T11:25:25;18.23;;;10.50;;
38262;SDS011;24054;50.128;19.730;2023-03-04T11:27:59;14.93;;;9.15;;
38262;SDS011;24054;50.128;19.730;2023-03-04T11:30:33;16.85;;;9.77;;
38262;SDS011;24054;50.128;19.730;2023-03-04T11:33:09;14.45;;;9.57;;
38262;SDS011;24054;50.128;19.730;2023-03-04T11:35:46;16.45;;;9.90;;
38262;SDS011;24054;50.128;19.730;2023-03-04T11:38:20;16.67;;;10.07;;
38262;SDS011;24054;50.128;19.730;2023-03-04T11:40:51;13.40;;;9.50;;
38262;SDS011;24054;50.128;19.730;2023-03-04T11:43:24;18.42;;;10.43;;
38262;SDS011;24054;50.128;19.730;2023-03-04T11:46:04;16.27;;;10.63;;
38262;SDS011;24054;50.128;19.730;2023-03-04T11:49:06;15.82;;;9.82;;
38262;SDS011;24054;50.128;19.730;2023-03-04T11:51:44;14.70;;;9.38;;
38262;SDS011;24054;50.128;19.730;2023-03-04T11:54:22;19.77;;;10.13;;
38262;SDS011;24054;50.128;19.730;2023-03-04T11:56:56;15.77;;;10.35;;
38262;SDS011;24054;50.128;19.730;2023-03-04T11:59:34;16.50;;;10.43;;
38262;SDS011;24054;50.128;19.730;2023-03-04T12:02:13;16.30;;;10.70;;
38262;SDS011;24054;50.128;19.730;2023-03-04T12:04:46;15.20;;;10.20;;
38262;SDS011;24054;50.128;19.730;2023-03-04T12:07:53;16.35;;;9.85;;
38262;SDS011;24054;50.128;19.730;2023-03-04T12:10:35;14.60;;;9.88;;
38262;SDS011;24054;50.128;19.730;2023-03-04T12:13:13;15.68;;;10.20;;
38262;SDS011;24054;50.128;19.730;2023-03-04T12:16:04;16.40;;;10.55;;
38262;SDS011;24054;50.128;19.730;2023-03-04T12:18:52;18.45;;;11.15;;
38262;SDS011;24054;50.128;19.730;2023-03-04T12:21:41;13.70;;;9.65;;
38262;SDS011;24054;50.128;19.730;2023-03-04T12:24:33;15.50;;;10.20;;
38262;SDS011;24054;50.128;19.730;2023-03-04T12:27:16;16.70;;;11.52;;
38262;SDS011;24054;50.128;19.730;2023-03-04T12:29:52;17.08;;;10.15;;
38262;SDS011;24054;50.128;19.730;2023-03-04T12:32:26;15.38;;;9.93;;
38262;SDS011;24054;50.128;19.730;2023-03-04T12:35:03;15.88;;;10.75;;
38262;SDS011;24054;50.128;19.730;2023-03-04T12:37:52;17.42;;;10.90;;
38262;SDS011;24054;50.128;19.730;2023-03-04T12:40:42;15.00;;;10.52;;
38262;SDS011;24054;50.128;19.730;2023-03-04T12:43:23;15.70;;;11.00;;
38262;SDS011;24054;50.128;19.730;2023-03-04T12:46:03;14.93;;;10.80;;
38262;SDS011;24054;50.128;19.730;2023-03-04T12:48:58;16.55;;;10.70;;
38262;SDS011;24054;50.128;19.730;2023-03-04T12:51:42;17.45;;;11.07;;
38262;SDS011;24054;50.128;19.730;2023-03-04T12:54:15;18.80;;;11.70;;
38262;SDS011;24054;50.128;19.730;2023-03-04T12:56:51;15.90;;;11.13;;
38262;SDS011;24054;50.128;19.730;2023-03-04T12:59:22;18.15;;;10.43;;
38262;SDS011;24054;50.128;19.730;2023-03-04T13:01:53;17.30;;;10.60;;
38262;SDS011;24054;50.128;19.730;2023-03-04T13:04:29;14.90;;;10.82;;
38262;SDS011;24054;50.128;19.730;2023-03-04T13:07:07;15.70;;;10.85;;
38262;SDS011;24054;50.128;19.730;2023-03-04T13:09:44;18.67;;;11.88;;
38262;SDS011;24054;50.128;19.730;2023-03-04T13:12:16;15.52;;;10.57;;
38262;SDS011;24054;50.128;19.730;2023-03-04T13:17:56;15.88;;;9.85;;
38262;SDS011;24054;50.128;19.730;2023-03-04T13:20:34;15.45;;;10.50;;
38262;SDS011;24054;50.128;19.730;2023-03-04T13:23:03;16.55;;;10.88;;
38262;SDS011;24054;50.128;19.730;2023-03-04T13:26:06;15.70;;;10.40;;
38262;SDS011;24054;50.128;19.730;2023-03-04T13:28:42;14.20;;;9.88;;
38262;SDS011;24054;50.128;19.730;2023-03-04T13:31:13;14.55;;;10.00;;
38262;SDS011;24054;50.128;19.730;2023-03-04T13:33:46;14.85;;;10.40;;
38262;SDS011;24054;50.128;19.730;2023-03-04T13:36:26;16.38;;;10.70;;
38262;SDS011;24054;50.128;19.730;2023-03-04T13:38:59;16.65;;;10.75;;
38262;SDS011;24054;50.128;19.730;2023-03-04T13:41:28;14.13;;;9.27;;
38262;SDS011;24054;50.128;19.730;2023-03-04T13:43:58;14.93;;;10.25;;
38262;SDS011;24054;50.128;19.730;2023-03-04T13:46:30;13.43;;;9.85;;
38262;SDS011;24054;50.128;19.730;2023-03-04T13:49:07;12.82;;;9.82;;
38262;SDS011;24054;50.128;19.730;2023-03-04T13:51:45;14.73;;;10.10;;
38262;SDS011;24054;50.128;19.730;2023-03-04T13:54:13;15.00;;;10.27;;
38262;SDS011;24054;50.128;19.730;2023-03-04T13:56:41;12.80;;;9.02;;
38262;SDS011;24054;50.128;19.730;2023-03-04T13:59:18;13.23;;;9.15;;
38262;SDS011;24054;50.128;19.730;2023-03-04T14:04:37;14.18;;;9.25;;
38262;SDS011;24054;50.128;19.730;2023-03-04T14:07:17;11.63;;;8.63;;
38262;SDS011;24054;50.128;19.730;2023-03-04T14:09:53;14.30;;;9.95;;
38262;SDS011;24054;50.128;19.730;2023-03-04T14:12:22;16.17;;;9.95;;
38262;SDS011;24054;50.128;19.730;2023-03-04T14:17:19;13.70;;;9.15;;
38262;SDS011;24054;50.128;19.730;2023-03-04T14:19:48;13.27;;;8.70;;
38262;SDS011;24054;50.128;19.730;2023-03-04T14:22:21;12.07;;;8.40;;
38262;SDS011;24054;50.128;19.730;2023-03-04T14:25:00;12.93;;;9.38;;
38262;SDS011;24054;50.128;19.730;2023-03-04T14:27:29;14.07;;;9.45;;
38262;SDS011;24054;50.128;19.730;2023-03-04T14:30:00;14.35;;;9.48;;
38262;SDS011;24054;50.128;19.730;2023-03-04T14:32:28;13.90;;;8.43;;
38262;SDS011;24054;50.128;19.730;2023-03-04T14:34:56;11.82;;;8.50;;
38262;SDS011;24054;50.128;19.730;2023-03-04T14:37:30;14.07;;;9.60;;
38262;SDS011;24054;50.128;19.730;2023-03-04T14:40:04;12.65;;;8.80;;
38262;SDS011;24054;50.128;19.730;2023-03-04T14:42:35;13.73;;;8.35;;
38262;SDS011;24054;50.128;19.730;2023-03-04T14:45:09;12.50;;;9.05;;
38262;SDS011;24054;50.128;19.730;2023-03-04T14:47:41;13.20;;;8.85;;